createdAt,value
2018-11-10T00:00:30.122Z,16.55
2018-11-10T00:01:05.629Z,16.44
2018-11-10T00:01:41.075Z,16.14
2018-11-10T00:02:16.550Z,16.38
2018-11-10T00:02:52.403Z,16.46
2018-11-10T00:03:27.939Z,16.50
2018-11-10T00:04:03.664Z,16.51
2018-11-10T00:04:38.818Z,16.58
2018-11-10T00:05:14.197Z,16.41
2018-11-10T00:05:49.905Z,16.56
2018-11-10T00:06:25.227Z,16.63
2018-11-10T00:07:00.898Z,16.38
2018-11-10T00:07:36.487Z,16.61
2018-11-10T00:08:11.791Z,16.35
2018-11-10T00:08:47.430Z,16.40
2018-11-10T00:09:22.809Z,16.53
2018-11-10T00:09:58.207Z,16.44
2018-11-10T00:10:33.479Z,16.11
2018-11-10T00:11:08.867Z,16.18
2018-11-10T00:11:44.149Z,16.31
2018-11-10T00:12:19.412Z,16.30
2018-11-10T00:12:54.757Z,16.23
2018-11-10T00:13:30.049Z,16.28
2018-11-10T00:14:05.658Z,16.25
2018-11-10T00:14:41.060Z,16.43
2018-11-10T00:15:16.529Z,16.18
2018-11-10T00:15:52.052Z,16.25
2018-11-10T00:16:27.582Z,16.40
2018-11-10T00:17:03.037Z,16.44
2018-11-10T00:17:38.475Z,16.35
2018-11-10T00:18:13.814Z,16.32
2018-11-10T00:18:49.588Z,16.52
2018-11-10T00:19:24.968Z,16.31
2018-11-10T00:20:00.607Z,16.45
2018-11-10T00:20:35.880Z,16.33
2018-11-10T00:21:11.341Z,16.41
2018-11-10T00:21:46.789Z,16.55
2018-11-10T00:22:22.109Z,16.58
2018-11-10T00:22:57.910Z,16.48
2018-11-10T00:23:33.317Z,16.59
2018-11-10T00:24:08.616Z,16.65
2018-11-10T00:24:44.394Z,16.65
2018-11-10T00:25:19.693Z,16.42
2018-11-10T00:25:55.214Z,16.63
2018-11-10T00:26:30.932Z,16.41
2018-11-10T00:27:06.593Z,16.37
2018-11-10T00:27:42.759Z,16.32
2018-11-10T00:28:18.181Z,16.48
2018-11-10T00:28:53.391Z,16.46
2018-11-10T00:29:28.531Z,16.51
2018-11-10T00:30:03.830Z,16.46
2018-11-10T00:30:38.991Z,16.43
2018-11-10T00:31:14.332Z,16.60
2018-11-10T00:31:49.641Z,16.65
2018-11-10T00:32:24.841Z,16.34
2018-11-10T00:33:00.293Z,16.43
2018-11-10T00:33:35.512Z,16.51
2018-11-10T00:34:10.864Z,16.41
2018-11-10T00:34:46.211Z,16.31
2018-11-10T00:35:21.485Z,16.37
2018-11-10T00:35:56.831Z,16.65
2018-11-10T00:36:32.472Z,16.41
2018-11-10T00:37:07.893Z,16.34
2018-11-10T00:37:43.672Z,16.39
2018-11-10T00:38:19.042Z,16.51
2018-11-10T00:38:54.853Z,16.32
2018-11-10T00:39:30.311Z,16.69
2018-11-10T00:40:06.472Z,16.39
2018-11-10T00:40:42.064Z,16.56
2018-11-10T00:41:17.561Z,16.49
2018-11-10T00:41:53.151Z,16.46
2018-11-10T00:42:28.605Z,16.57
2018-11-10T00:43:04.122Z,16.44
2018-11-10T00:43:39.618Z,16.48
2018-11-10T00:44:14.849Z,16.60
2018-11-10T00:44:50.112Z,16.73
2018-11-10T00:45:25.487Z,16.77
2018-11-10T00:46:00.957Z,16.49
2018-11-10T00:46:36.425Z,16.67
2018-11-10T00:47:11.586Z,16.66
2018-11-10T00:47:46.806Z,16.59
2018-11-10T00:48:22.272Z,16.59
2018-11-10T00:48:57.707Z,16.72
2018-11-10T00:49:33.277Z,16.62
2018-11-10T00:50:09.647Z,16.68
2018-11-10T00:50:45.010Z,16.66
2018-11-10T00:51:20.464Z,16.69
2018-11-10T00:51:55.737Z,16.55
2018-11-10T00:52:31.159Z,16.51
2018-11-10T00:53:07.078Z,16.57
2018-11-10T00:53:42.563Z,16.64
2018-11-10T00:54:18.097Z,16.56
2018-11-10T00:54:53.493Z,16.52
2018-11-10T00:55:28.772Z,16.55
2018-11-10T00:56:04.435Z,16.71
2018-11-10T00:56:39.740Z,16.65
2018-11-10T00:57:15.206Z,16.68
2018-11-10T00:57:50.599Z,16.56
2018-11-10T00:58:25.811Z,16.74
2018-11-10T00:59:01.197Z,16.58
2018-11-10T00:59:37.138Z,16.59
2018-11-10T01:00:14.161Z,16.69
2018-11-10T01:00:49.919Z,16.45
2018-11-10T01:01:25.346Z,16.73
2018-11-10T01:02:01.126Z,16.56
2018-11-10T01:02:36.441Z,16.57
2018-11-10T01:03:11.891Z,16.40
2018-11-10T01:03:47.293Z,16.48
2018-11-10T01:04:22.660Z,16.55
2018-11-10T01:04:58.020Z,16.41
2018-11-10T01:05:33.478Z,16.40
2018-11-10T01:06:08.766Z,16.42
2018-11-10T01:06:43.879Z,16.41
2018-11-10T01:07:19.507Z,16.36
2018-11-10T01:07:54.969Z,16.20
2018-11-10T01:08:30.416Z,16.47
2018-11-10T01:09:07.137Z,16.49
2018-11-10T01:09:42.473Z,16.27
2018-11-10T01:10:17.753Z,16.36
2018-11-10T01:10:53.199Z,16.31
2018-11-10T01:11:28.738Z,16.46
2018-11-10T01:12:04.833Z,16.50
2018-11-10T01:12:40.425Z,16.53
2018-11-10T01:13:15.910Z,16.66
2018-11-10T01:13:51.248Z,16.61
2018-11-10T01:14:26.759Z,16.58
2018-11-10T01:15:01.992Z,16.54
2018-11-10T01:15:37.325Z,16.50
2018-11-10T01:16:12.580Z,16.50
2018-11-10T01:16:47.817Z,16.52
2018-11-10T01:17:23.420Z,16.43
2018-11-10T01:17:58.754Z,16.53
2018-11-10T01:18:34.125Z,16.51
2018-11-10T01:19:09.437Z,16.51
2018-11-10T01:19:44.986Z,16.49
2018-11-10T01:20:21.405Z,16.48
2018-11-10T01:20:57.215Z,16.38
2018-11-10T01:21:32.489Z,16.53
2018-11-10T01:22:08.289Z,16.54
2018-11-10T01:22:43.689Z,16.60
2018-11-10T01:23:19.173Z,16.55
2018-11-10T01:23:54.499Z,16.55
2018-11-10T01:24:29.832Z,16.59
2018-11-10T01:25:05.388Z,16.65
2018-11-10T01:25:40.510Z,16.55
2018-11-10T01:26:15.768Z,16.51
2018-11-10T01:26:51.136Z,16.54
2018-11-10T01:27:26.736Z,16.62
2018-11-10T01:28:02.072Z,16.60
2018-11-10T01:28:37.189Z,16.26
2018-11-10T01:29:12.663Z,16.59
2018-11-10T01:29:47.926Z,16.77
2018-11-10T01:30:23.271Z,17.05
2018-11-10T01:30:58.637Z,17.20
2018-11-10T01:31:33.939Z,16.79
2018-11-10T01:32:09.345Z,16.74
2018-11-10T01:32:46.067Z,16.95
2018-11-10T01:33:21.428Z,16.39
2018-11-10T01:33:56.728Z,16.76
2018-11-10T01:34:32.170Z,16.74
2018-11-10T01:35:07.405Z,16.43
2018-11-10T01:35:42.685Z,16.71
2018-11-10T01:36:18.131Z,17.13
2018-11-10T01:36:53.516Z,16.77
2018-11-10T01:37:28.881Z,16.88
2018-11-10T01:38:04.114Z,16.84
2018-11-10T01:38:39.569Z,16.74
2018-11-10T01:39:15.349Z,16.73
2018-11-10T01:39:50.672Z,16.45
2018-11-10T01:40:26.006Z,16.63
2018-11-10T01:41:01.442Z,16.51
2018-11-10T01:41:36.954Z,16.71
2018-11-10T01:42:12.348Z,16.84
2018-11-10T01:42:47.539Z,16.24
2018-11-10T01:43:22.979Z,16.38
2018-11-10T01:43:58.267Z,16.67
2018-11-10T01:44:33.741Z,16.52
2018-11-10T01:45:13.321Z,16.65
2018-11-10T01:45:48.589Z,16.69
2018-11-10T01:46:23.979Z,16.96
2018-11-10T01:46:59.551Z,17.07
2018-11-10T01:47:34.675Z,16.81
2018-11-10T01:48:10.085Z,16.53
2018-11-10T01:48:45.355Z,17.07
2018-11-10T01:49:20.721Z,16.80
2018-11-10T01:49:56.060Z,16.70
2018-11-10T01:50:31.267Z,16.75
2018-11-10T01:51:07.667Z,16.68
2018-11-10T01:51:43.157Z,16.69
2018-11-10T01:52:18.555Z,16.86
2018-11-10T01:52:53.796Z,17.21
2018-11-10T01:53:29.174Z,16.45
2018-11-10T01:54:04.291Z,16.57
2018-11-10T01:54:39.731Z,16.79
2018-11-10T01:55:14.964Z,16.71
2018-11-10T01:55:50.386Z,16.81
2018-11-10T01:56:25.724Z,16.75
2018-11-10T01:57:00.996Z,16.64
2018-11-10T01:57:36.382Z,16.88
2018-11-10T01:58:11.604Z,17.19
2018-11-10T01:58:46.841Z,17.06
2018-11-10T01:59:22.090Z,16.83
2018-11-10T01:59:57.377Z,16.80
2018-11-10T02:00:32.744Z,16.85
2018-11-10T02:01:08.187Z,16.69
2018-11-10T02:01:43.413Z,16.71
2018-11-10T02:02:18.784Z,16.92
2018-11-10T02:02:54.150Z,16.86
2018-11-10T02:03:29.425Z,16.75
2018-11-10T02:04:04.683Z,16.88
2018-11-10T02:04:40.144Z,16.86
2018-11-10T02:05:16.297Z,16.72
2018-11-10T02:05:51.735Z,16.96
2018-11-10T02:06:26.883Z,17.15
2018-11-10T02:07:02.353Z,16.71
2018-11-10T02:07:37.639Z,16.94
2018-11-10T02:08:13.226Z,16.73
2018-11-10T02:08:48.349Z,17.15
2018-11-10T02:09:23.788Z,16.83
2018-11-10T02:09:59.136Z,16.64
2018-11-10T02:10:34.193Z,16.64
2018-11-10T02:11:09.684Z,16.79
2018-11-10T02:11:45.421Z,16.92
2018-11-10T02:12:20.971Z,16.73
2018-11-10T02:12:56.200Z,16.56
2018-11-10T02:13:31.604Z,16.78
2018-11-10T02:14:07.105Z,16.45
2018-11-10T02:14:42.525Z,17.14
2018-11-10T02:15:18.585Z,16.62
2018-11-10T02:15:53.945Z,16.64
2018-11-10T02:16:29.289Z,16.68
2018-11-10T02:17:04.930Z,17.00
2018-11-10T02:17:40.809Z,17.07
2018-11-10T02:18:16.265Z,16.64
2018-11-10T02:18:51.639Z,16.80
2018-11-10T02:19:26.967Z,16.48
2018-11-10T02:20:02.716Z,16.94
2018-11-10T02:20:37.919Z,16.64
2018-11-10T02:21:13.079Z,16.79
2018-11-10T02:21:48.748Z,16.92
2018-11-10T02:22:24.158Z,16.90
2018-11-10T02:22:59.497Z,16.84
2018-11-10T02:23:34.511Z,16.77
2018-11-10T02:24:09.973Z,16.66
2018-11-10T02:24:45.351Z,17.01
2018-11-10T02:25:20.640Z,16.70
2018-11-10T02:25:55.955Z,16.92
2018-11-10T02:26:31.243Z,16.91
2018-11-10T02:27:11.028Z,17.21
2018-11-10T02:27:46.280Z,17.23
2018-11-10T02:28:21.763Z,16.55
2018-11-10T02:28:57.294Z,16.54
2018-11-10T02:29:32.749Z,16.98
2018-11-10T02:30:10.059Z,16.94
2018-11-10T02:30:45.359Z,16.74
2018-11-10T02:31:20.656Z,16.54
2018-11-10T02:31:55.917Z,16.82
2018-11-10T02:32:31.408Z,16.51
2018-11-10T02:33:07.190Z,16.82
2018-11-10T02:33:42.356Z,16.88
2018-11-10T02:34:17.760Z,17.04
2018-11-10T02:34:54.008Z,16.56
2018-11-10T02:35:29.428Z,16.71
2018-11-10T02:36:05.005Z,16.78
2018-11-10T02:36:40.395Z,16.89
2018-11-10T02:37:15.870Z,16.84
2018-11-10T02:37:51.251Z,16.83
2018-11-10T02:38:26.966Z,16.67
2018-11-10T02:39:02.302Z,16.97
2018-11-10T02:39:37.696Z,16.86
2018-11-10T02:40:15.255Z,16.56
2018-11-10T02:40:50.499Z,16.99
2018-11-10T02:41:25.743Z,16.84
2018-11-10T02:42:01.122Z,16.64
2018-11-10T02:42:36.389Z,16.64
2018-11-10T02:43:11.651Z,17.10
2018-11-10T02:43:46.944Z,16.72
2018-11-10T02:44:22.298Z,17.32
2018-11-10T02:44:57.601Z,16.63
2018-11-10T02:45:33.094Z,16.95
2018-11-10T02:46:08.366Z,17.22
2018-11-10T02:46:43.886Z,17.27
2018-11-10T02:47:19.318Z,17.00
2018-11-10T02:47:54.357Z,16.77
2018-11-10T02:48:29.612Z,16.72
2018-11-10T02:49:04.840Z,17.30
2018-11-10T02:49:40.083Z,17.23
2018-11-10T02:50:15.465Z,16.78
2018-11-10T02:50:50.797Z,17.26
2018-11-10T02:51:26.229Z,17.21
2018-11-10T02:52:01.825Z,17.26
2018-11-10T02:52:37.138Z,16.85
2018-11-10T02:53:12.504Z,16.73
2018-11-10T02:53:47.583Z,16.91
2018-11-10T02:54:23.025Z,16.96
2018-11-10T02:54:58.407Z,16.78
2018-11-10T02:55:33.674Z,16.90
2018-11-10T02:56:09.256Z,16.97
2018-11-10T02:56:44.723Z,16.90
2018-11-10T02:57:20.276Z,16.70
2018-11-10T02:57:55.433Z,17.22
2018-11-10T02:58:30.692Z,17.10
2018-11-10T02:59:06.118Z,17.20
2018-11-10T02:59:41.545Z,17.20
2018-11-10T03:00:16.899Z,16.85
2018-11-10T03:00:52.117Z,17.27
2018-11-10T03:01:27.568Z,16.80
2018-11-10T03:02:03.022Z,17.06
2018-11-10T03:02:38.427Z,17.07
2018-11-10T03:03:13.836Z,17.29
2018-11-10T03:03:49.199Z,16.61
2018-11-10T03:04:24.470Z,17.15
2018-11-10T03:04:59.844Z,17.04
2018-11-10T03:05:34.979Z,17.10
2018-11-10T03:06:10.735Z,17.32
2018-11-10T03:06:45.874Z,16.79
2018-11-10T03:07:21.226Z,17.29
2018-11-10T03:07:56.526Z,17.19
2018-11-10T03:08:31.809Z,17.09
2018-11-10T03:09:08.854Z,17.13
2018-11-10T03:09:44.001Z,17.25
2018-11-10T03:10:19.302Z,16.94
2018-11-10T03:10:54.644Z,16.75
2018-11-10T03:11:29.969Z,16.84
2018-11-10T03:12:05.589Z,16.66
2018-11-10T03:12:41.678Z,16.78
2018-11-10T03:13:16.937Z,17.20
2018-11-10T03:13:52.417Z,17.04
2018-11-10T03:14:27.501Z,16.90
2018-11-10T03:15:02.821Z,16.69
2018-11-10T03:15:38.235Z,16.85
2018-11-10T03:16:13.675Z,17.09
2018-11-10T03:16:48.962Z,16.81
2018-11-10T03:17:24.350Z,16.67
2018-11-10T03:17:59.698Z,16.47
2018-11-10T03:18:35.046Z,16.59
2018-11-10T03:19:10.559Z,16.59
2018-11-10T03:19:45.739Z,16.86
2018-11-10T03:20:20.965Z,16.63
2018-11-10T03:20:56.824Z,16.50
2018-11-10T03:21:32.352Z,16.72
2018-11-10T03:22:07.627Z,17.03
2018-11-10T03:22:43.907Z,16.59
2018-11-10T03:23:19.134Z,16.88
2018-11-10T03:23:54.512Z,16.81
2018-11-10T03:24:29.759Z,16.67
2018-11-10T03:25:04.978Z,17.06
2018-11-10T03:25:40.329Z,17.11
2018-11-10T03:26:15.617Z,16.58
2018-11-10T03:26:50.943Z,17.18
2018-11-10T03:27:26.313Z,17.19
2018-11-10T03:28:01.681Z,17.04
2018-11-10T03:28:36.939Z,16.72
2018-11-10T03:29:12.346Z,16.77
2018-11-10T03:29:47.944Z,17.15
2018-11-10T03:30:23.279Z,16.96
2018-11-10T03:30:58.663Z,16.73
2018-11-10T03:31:34.012Z,16.90
2018-11-10T03:32:09.349Z,17.31
2018-11-10T03:32:44.600Z,17.15
2018-11-10T03:33:19.925Z,17.09
2018-11-10T03:33:55.409Z,16.48
2018-11-10T03:34:30.756Z,16.94
2018-11-10T03:35:06.947Z,16.67
2018-11-10T03:35:42.142Z,17.09
2018-11-10T03:36:17.559Z,16.57
2018-11-10T03:36:52.988Z,17.08
2018-11-10T03:37:28.385Z,16.93
2018-11-10T03:38:03.872Z,16.99
2018-11-10T03:38:39.072Z,16.53
2018-11-10T03:39:14.427Z,17.05
2018-11-10T03:39:49.956Z,16.60
2018-11-10T03:40:25.197Z,16.72
2018-11-10T03:41:00.483Z,16.61
2018-11-10T03:41:35.783Z,16.84
2018-11-10T03:42:11.122Z,16.59
2018-11-10T03:42:46.419Z,17.00
2018-11-10T03:43:21.772Z,17.06
2018-11-10T03:43:56.993Z,16.95
2018-11-10T03:44:32.337Z,16.83
2018-11-10T03:45:08.219Z,17.02
2018-11-10T03:45:43.424Z,17.06
2018-11-10T03:46:18.610Z,17.04
2018-11-10T03:46:53.908Z,16.73
2018-11-10T03:47:29.156Z,17.18
2018-11-10T03:48:04.542Z,17.17
2018-11-10T03:48:39.905Z,17.24
2018-11-10T03:49:15.455Z,16.95
2018-11-10T03:49:50.612Z,16.72
2018-11-10T03:50:25.960Z,17.11
2018-11-10T03:51:01.248Z,16.95
2018-11-10T03:51:36.470Z,16.70
2018-11-10T03:52:11.933Z,16.46
2018-11-10T03:52:47.238Z,16.73
2018-11-10T03:53:22.695Z,16.94
2018-11-10T03:53:57.996Z,16.76
2018-11-10T03:54:33.293Z,16.96
2018-11-10T03:55:09.515Z,17.07
2018-11-10T03:55:44.750Z,16.77
2018-11-10T03:56:20.272Z,16.82
2018-11-10T03:56:55.567Z,16.70
2018-11-10T03:57:31.062Z,16.79
2018-11-10T03:58:06.372Z,16.72
2018-11-10T03:58:41.664Z,16.87
2018-11-10T03:59:17.023Z,16.82
2018-11-10T03:59:52.341Z,16.92
2018-11-10T04:00:27.521Z,16.58
2018-11-10T04:01:02.926Z,17.04
2018-11-10T04:01:38.349Z,16.75
2018-11-10T04:02:13.942Z,16.79
2018-11-10T04:02:49.216Z,17.00
2018-11-10T04:03:24.545Z,16.38
2018-11-10T04:03:59.891Z,16.85
2018-11-10T04:04:35.276Z,16.34
2018-11-10T04:05:11.639Z,16.75
2018-11-10T04:05:46.806Z,16.69
2018-11-10T04:06:22.492Z,17.21
2018-11-10T04:06:57.896Z,16.83
2018-11-10T04:07:33.313Z,16.96
2018-11-10T04:08:08.846Z,16.65
2018-11-10T04:08:44.199Z,16.68
2018-11-10T04:09:19.593Z,16.89
2018-11-10T04:09:55.093Z,17.06
2018-11-10T04:10:30.299Z,16.95
2018-11-10T04:11:06.050Z,16.93
2018-11-10T04:11:41.329Z,16.69
2018-11-10T04:12:16.554Z,16.94
2018-11-10T04:12:51.993Z,16.97
2018-11-10T04:13:27.374Z,16.61
2018-11-10T04:14:02.764Z,16.73
2018-11-10T04:14:38.316Z,17.11
2018-11-10T04:15:13.702Z,16.61
2018-11-10T04:15:48.966Z,17.16
2018-11-10T04:16:24.453Z,16.86
2018-11-10T04:16:59.620Z,17.03
2018-11-10T04:17:35.162Z,16.84
2018-11-10T04:18:10.752Z,17.07
2018-11-10T04:18:46.075Z,16.89
2018-11-10T04:19:21.656Z,17.09
2018-11-10T04:19:57.198Z,16.85
2018-11-10T04:20:32.346Z,16.68
2018-11-10T04:21:07.727Z,17.02
2018-11-10T04:21:43.311Z,16.62
2018-11-10T04:22:22.906Z,16.86
2018-11-10T04:22:58.333Z,16.78
2018-11-10T04:23:33.600Z,16.51
2018-11-10T04:24:09.170Z,16.90
2018-11-10T04:24:44.436Z,17.00
2018-11-10T04:25:19.829Z,17.11
2018-11-10T04:25:55.015Z,17.23
2018-11-10T04:26:30.302Z,17.10
2018-11-10T04:27:05.799Z,17.12
2018-11-10T04:27:41.324Z,16.96
2018-11-10T04:28:16.513Z,16.65
2018-11-10T04:28:51.811Z,16.72
2018-11-10T04:29:27.249Z,16.71
2018-11-10T04:30:03.475Z,17.31
2018-11-10T04:30:38.708Z,16.75
2018-11-10T04:31:14.222Z,16.85
2018-11-10T04:31:49.623Z,16.65
2018-11-10T04:32:25.074Z,16.53
2018-11-10T04:33:00.299Z,16.59
2018-11-10T04:33:35.706Z,16.96
2018-11-10T04:34:11.003Z,17.06
2018-11-10T04:34:46.362Z,16.77
2018-11-10T04:35:21.793Z,17.08
2018-11-10T04:35:57.237Z,16.66
2018-11-10T04:36:32.656Z,16.46
2018-11-10T04:37:08.118Z,16.82
2018-11-10T04:37:43.141Z,16.98
2018-11-10T04:38:18.652Z,16.62
2018-11-10T04:38:53.841Z,16.75
2018-11-10T04:39:29.248Z,17.06
2018-11-10T04:40:04.834Z,16.96
2018-11-10T04:40:40.315Z,16.87
2018-11-10T04:41:15.652Z,16.87
2018-11-10T04:41:50.923Z,16.58
2018-11-10T04:42:26.220Z,16.49
2018-11-10T04:43:01.412Z,16.51
2018-11-10T04:43:37.217Z,16.93
2018-11-10T04:44:12.674Z,16.59
2018-11-10T04:44:48.031Z,16.53
2018-11-10T04:45:23.597Z,16.55
2018-11-10T04:45:58.834Z,17.12
2018-11-10T04:46:34.215Z,16.93
2018-11-10T04:47:09.991Z,16.80
2018-11-10T04:47:45.313Z,17.23
2018-11-10T04:48:20.637Z,17.03
2018-11-10T04:48:56.126Z,16.57
2018-11-10T04:49:31.294Z,17.19
2018-11-10T04:50:08.622Z,17.18
2018-11-10T04:50:43.943Z,16.64
2018-11-10T04:51:19.448Z,17.17
2018-11-10T04:51:54.884Z,16.65
2018-11-10T04:52:30.135Z,16.53
2018-11-10T04:53:05.322Z,17.00
2018-11-10T04:53:40.652Z,17.20
2018-11-10T04:54:16.153Z,16.87
2018-11-10T04:54:51.597Z,17.24
2018-11-10T04:55:26.900Z,16.87
2018-11-10T04:56:02.382Z,16.76
2018-11-10T04:56:37.574Z,17.03
2018-11-10T04:57:13.149Z,16.93
2018-11-10T04:57:48.548Z,16.57
2018-11-10T04:58:24.039Z,16.83
2018-11-10T04:58:59.335Z,17.06
2018-11-10T04:59:34.565Z,16.98
2018-11-10T05:00:13.703Z,16.76
2018-11-10T05:00:49.134Z,16.53
2018-11-10T05:01:24.514Z,16.66
2018-11-10T05:01:59.985Z,16.64
2018-11-10T05:02:35.074Z,16.54
2018-11-10T05:03:10.465Z,17.10
2018-11-10T05:03:45.812Z,16.80
2018-11-10T05:04:21.129Z,16.75
2018-11-10T05:04:56.457Z,16.82
2018-11-10T05:05:31.646Z,16.62
2018-11-10T05:06:06.993Z,16.88
2018-11-10T05:06:42.305Z,16.74
2018-11-10T05:07:17.574Z,16.84
2018-11-10T05:07:52.985Z,17.25
2018-11-10T05:08:28.378Z,17.09
2018-11-10T05:09:03.703Z,16.96
2018-11-10T05:09:39.242Z,16.96
2018-11-10T05:10:14.488Z,17.29
2018-11-10T05:10:49.860Z,16.89
2018-11-10T05:11:25.151Z,17.14
2018-11-10T05:12:00.367Z,16.97
2018-11-10T05:12:35.748Z,16.75
2018-11-10T05:13:11.165Z,17.37
2018-11-10T05:13:46.225Z,17.23
2018-11-10T05:14:21.467Z,17.20
2018-11-10T05:14:56.850Z,17.34
2018-11-10T05:15:32.335Z,17.15
2018-11-10T05:16:07.662Z,17.08
2018-11-10T05:16:42.796Z,16.89
2018-11-10T05:17:18.209Z,17.15
2018-11-10T05:17:53.494Z,16.99
2018-11-10T05:18:28.798Z,16.77
2018-11-10T05:19:04.139Z,16.72
2018-11-10T05:19:39.741Z,16.73
2018-11-10T05:20:15.138Z,17.20
2018-11-10T05:20:50.349Z,17.27
2018-11-10T05:21:25.758Z,17.11
2018-11-10T05:22:01.156Z,17.32
2018-11-10T05:22:36.695Z,17.50
2018-11-10T05:23:12.122Z,16.87
2018-11-10T05:23:47.320Z,16.66
2018-11-10T05:24:22.551Z,16.79
2018-11-10T05:24:57.939Z,17.03
2018-11-10T05:25:33.206Z,16.83
2018-11-10T05:26:08.655Z,17.05
2018-11-10T05:26:43.849Z,16.95
2018-11-10T05:27:19.284Z,17.06
2018-11-10T05:27:54.563Z,16.96
2018-11-10T05:28:30.094Z,16.96
2018-11-10T05:29:06.971Z,16.84
2018-11-10T05:29:42.400Z,17.10
2018-11-10T05:30:17.776Z,17.35
2018-11-10T05:30:53.188Z,16.87
2018-11-10T05:31:28.451Z,16.89
2018-11-10T05:32:03.818Z,16.89
2018-11-10T05:32:39.116Z,16.67
2018-11-10T05:33:14.524Z,17.16
2018-11-10T05:33:49.881Z,17.19
2018-11-10T05:34:25.208Z,16.89
2018-11-10T05:35:00.489Z,17.17
2018-11-10T05:35:35.958Z,17.36
2018-11-10T05:36:11.151Z,16.74
2018-11-10T05:36:46.594Z,17.24
2018-11-10T05:37:21.827Z,17.26
2018-11-10T05:37:57.355Z,17.09
2018-11-10T05:38:32.718Z,17.08
2018-11-10T05:39:10.192Z,17.24
2018-11-10T05:39:45.544Z,16.82
2018-11-10T05:40:21.058Z,17.50
2018-11-10T05:40:56.797Z,17.11
2018-11-10T05:41:32.091Z,17.28
2018-11-10T05:42:07.330Z,16.92
2018-11-10T05:42:42.751Z,16.78
2018-11-10T05:43:18.110Z,17.04
2018-11-10T05:43:53.373Z,17.03
2018-11-10T05:44:28.672Z,17.13
2018-11-10T05:45:04.027Z,17.22
2018-11-10T05:45:39.395Z,17.25
2018-11-10T05:46:14.721Z,17.17
2018-11-10T05:46:50.125Z,16.82
2018-11-10T05:47:25.531Z,17.41
2018-11-10T05:48:00.793Z,17.13
2018-11-10T05:48:36.925Z,16.67
2018-11-10T05:49:12.203Z,17.08
2018-11-10T05:49:48.006Z,16.96
2018-11-10T05:50:23.265Z,16.92
2018-11-10T05:50:58.739Z,16.96
2018-11-10T05:51:34.178Z,16.80
2018-11-10T05:52:09.591Z,16.84
2018-11-10T05:52:44.904Z,17.10
2018-11-10T05:53:20.238Z,16.97
2018-11-10T05:53:55.739Z,16.83
2018-11-10T05:54:31.121Z,16.92
2018-11-10T05:55:07.399Z,16.71
2018-11-10T05:55:42.802Z,16.74
2018-11-10T05:56:18.048Z,16.72
2018-11-10T05:56:53.366Z,17.02
2018-11-10T05:57:28.617Z,17.38
2018-11-10T05:58:04.119Z,17.12
2018-11-10T05:58:39.333Z,16.84
2018-11-10T05:59:14.711Z,17.21
2018-11-10T05:59:49.980Z,17.13
2018-11-10T06:00:25.208Z,16.89
2018-11-10T06:01:00.565Z,16.98
2018-11-10T06:01:35.855Z,17.09
2018-11-10T06:02:11.143Z,16.65
2018-11-10T06:02:46.542Z,16.91
2018-11-10T06:03:21.913Z,17.02
2018-11-10T06:03:57.220Z,16.91
2018-11-10T06:04:32.432Z,17.08
2018-11-10T06:05:07.828Z,16.97
2018-11-10T06:05:43.131Z,16.74
2018-11-10T06:06:18.514Z,16.81
2018-11-10T06:06:53.753Z,17.18
2018-11-10T06:07:29.164Z,17.40
2018-11-10T06:08:04.546Z,16.79
2018-11-10T06:08:40.095Z,17.00
2018-11-10T06:09:15.499Z,16.89
2018-11-10T06:09:50.553Z,17.25
2018-11-10T06:10:26.153Z,17.45
2018-11-10T06:11:01.438Z,17.22
2018-11-10T06:11:36.774Z,17.29
2018-11-10T06:12:12.265Z,17.05
2018-11-10T06:12:47.936Z,16.75
2018-11-10T06:13:23.335Z,16.68
2018-11-10T06:13:58.713Z,16.99
2018-11-10T06:14:34.310Z,16.91
2018-11-10T06:15:10.295Z,16.47
2018-11-10T06:15:45.720Z,16.99
2018-11-10T06:16:20.965Z,16.80
2018-11-10T06:16:56.195Z,16.91
2018-11-10T06:17:31.413Z,17.13
2018-11-10T06:18:06.774Z,16.95
2018-11-10T06:18:42.169Z,16.90
2018-11-10T06:19:17.328Z,17.25
2018-11-10T06:19:52.742Z,17.07
2018-11-10T06:20:28.358Z,16.91
2018-11-10T06:21:03.683Z,16.95
2018-11-10T06:21:38.923Z,16.76
2018-11-10T06:22:14.314Z,17.12
2018-11-10T06:22:49.713Z,17.25
2018-11-10T06:23:25.012Z,16.69
2018-11-10T06:24:00.383Z,17.07
2018-11-10T06:24:35.668Z,16.62
2018-11-10T06:25:12.116Z,16.79
2018-11-10T06:25:47.337Z,17.18
2018-11-10T06:26:22.854Z,16.64
2018-11-10T06:26:58.026Z,17.26
2018-11-10T06:27:33.346Z,16.87
2018-11-10T06:28:08.444Z,16.81
2018-11-10T06:28:43.794Z,17.00
2018-11-10T06:29:19.041Z,17.12
2018-11-10T06:29:54.475Z,17.45
2018-11-10T06:30:29.829Z,17.60
2018-11-10T06:31:05.368Z,16.95
2018-11-10T06:31:40.627Z,17.06
2018-11-10T06:32:16.040Z,17.29
2018-11-10T06:32:51.281Z,17.35
2018-11-10T06:33:26.444Z,17.32
2018-11-10T06:34:01.915Z,17.01
2018-11-10T06:34:37.334Z,17.04
2018-11-10T06:35:12.738Z,17.46
2018-11-10T06:35:48.367Z,17.24
2018-11-10T06:36:23.644Z,16.95
2018-11-10T06:36:58.983Z,17.13
2018-11-10T06:37:34.130Z,17.32
2018-11-10T06:38:09.477Z,17.11
2018-11-10T06:38:44.715Z,17.03
2018-11-10T06:39:19.930Z,17.04
2018-11-10T06:39:55.424Z,17.33
2018-11-10T06:40:30.815Z,17.36
2018-11-10T06:41:06.755Z,17.41
2018-11-10T06:41:42.066Z,17.17
2018-11-10T06:42:17.267Z,17.07
2018-11-10T06:42:52.735Z,17.09
2018-11-10T06:43:27.955Z,16.98
2018-11-10T06:44:03.223Z,17.16
2018-11-10T06:44:38.548Z,17.33
2018-11-10T06:45:14.050Z,17.38
2018-11-10T06:45:49.724Z,17.28
2018-11-10T06:46:24.865Z,16.90
2018-11-10T06:47:00.181Z,16.85
2018-11-10T06:47:35.721Z,17.18
2018-11-10T06:48:11.163Z,16.97
2018-11-10T06:48:46.595Z,17.48
2018-11-10T06:49:21.902Z,17.04
2018-11-10T06:49:57.206Z,16.95
2018-11-10T06:50:32.738Z,17.30
2018-11-10T06:51:07.988Z,17.22
2018-11-10T06:51:43.444Z,17.20
2018-11-10T06:52:18.815Z,16.70
2018-11-10T06:52:54.370Z,17.13
2018-11-10T06:53:29.590Z,17.02
2018-11-10T06:54:05.140Z,16.92
2018-11-10T06:54:40.464Z,17.33
2018-11-10T06:55:15.813Z,16.90
2018-11-10T06:55:51.180Z,17.37
2018-11-10T06:56:26.644Z,17.41
2018-11-10T06:57:01.987Z,17.28
2018-11-10T06:57:37.434Z,16.83
2018-11-10T06:58:12.718Z,17.25
2018-11-10T06:58:47.965Z,17.33
2018-11-10T06:59:23.285Z,17.50
2018-11-10T06:59:58.639Z,17.27
2018-11-10T07:00:33.903Z,17.56
2018-11-10T07:01:09.249Z,17.67
2018-11-10T07:01:44.464Z,17.04
2018-11-10T07:02:19.789Z,17.15
2018-11-10T07:02:54.911Z,17.54
2018-11-10T07:03:30.249Z,17.38
2018-11-10T07:04:05.387Z,17.21
2018-11-10T07:04:40.772Z,17.53
2018-11-10T07:05:16.012Z,17.39
2018-11-10T07:05:51.590Z,17.34
2018-11-10T07:06:26.898Z,17.05
2018-11-10T07:07:02.110Z,17.22
2018-11-10T07:07:37.673Z,17.56
2018-11-10T07:08:13.006Z,17.38
2018-11-10T07:08:48.568Z,16.94
2018-11-10T07:09:24.009Z,17.26
2018-11-10T07:09:59.423Z,16.92
2018-11-10T07:10:34.728Z,17.13
2018-11-10T07:11:10.052Z,17.04
2018-11-10T07:11:45.375Z,17.17
2018-11-10T07:12:20.702Z,17.63
2018-11-10T07:12:56.039Z,17.73
2018-11-10T07:13:31.366Z,17.23
2018-11-10T07:14:06.649Z,17.24
2018-11-10T07:14:41.979Z,17.14
2018-11-10T07:15:17.179Z,17.40
2018-11-10T07:15:52.573Z,17.23
2018-11-10T07:16:27.770Z,17.14
2018-11-10T07:17:03.160Z,17.16
2018-11-10T07:17:38.569Z,17.54
2018-11-10T07:18:13.721Z,17.53
2018-11-10T07:18:49.122Z,17.38
2018-11-10T07:19:24.321Z,17.13
2018-11-10T07:19:59.595Z,17.16
2018-11-10T07:20:34.935Z,17.23
2018-11-10T07:21:10.210Z,17.44
2018-11-10T07:21:45.612Z,17.61
2018-11-10T07:22:20.831Z,17.55
2018-11-10T07:22:56.056Z,17.64
2018-11-10T07:23:31.490Z,17.59
2018-11-10T07:24:07.260Z,17.53
2018-11-10T07:24:42.519Z,17.62
2018-11-10T07:25:17.812Z,17.31
2018-11-10T07:25:53.225Z,17.30
2018-11-10T07:26:28.641Z,17.68
2018-11-10T07:27:04.173Z,17.64
2018-11-10T07:27:39.496Z,17.70
2018-11-10T07:28:14.810Z,17.61
2018-11-10T07:28:50.092Z,17.69
2018-11-10T07:29:25.474Z,17.20
2018-11-10T07:30:00.777Z,17.59
2018-11-10T07:30:36.076Z,17.69
2018-11-10T07:31:11.314Z,17.46
2018-11-10T07:31:46.675Z,17.88
2018-11-10T07:32:22.032Z,17.37
2018-11-10T07:32:57.313Z,17.29
2018-11-10T07:33:32.788Z,17.41
2018-11-10T07:34:08.223Z,17.66
2018-11-10T07:34:43.628Z,17.24
2018-11-10T07:35:18.882Z,17.46
2018-11-10T07:35:54.308Z,17.66
2018-11-10T07:36:29.512Z,17.17